createdAt,value
2023-02-18T00:00:01.133Z,45.69
2023-02-18T00:02:33.408Z,45.67
2023-02-18T00:05:04.776Z,46.41
2023-02-18T00:07:39.284Z,46.41
2023-02-18T00:10:14.360Z,46.91
2023-02-18T00:12:44.995Z,47.14
2023-02-18T00:15:15.669Z,47.90
2023-02-18T00:30:43.715Z,53.10
2023-02-18T00:33:14.259Z,48.86
2023-02-18T00:35:44.736Z,47.36
2023-02-18T00:38:15.202Z,47.45
2023-02-18T00:40:46.897Z,47.29
2023-02-18T00:56:52.462Z,51.93
2023-02-18T00:59:23.018Z,48.92
2023-02-18T01:01:53.555Z,48.12
2023-02-18T01:04:24.149Z,47.71
2023-02-18T01:06:54.673Z,47.83
2023-02-18T01:09:25.916Z,46.99
2023-02-18T01:11:56.356Z,47.27
2023-02-18T01:14:26.928Z,46.62
2023-02-18T01:16:57.394Z,47.18
2023-02-18T01:19:27.877Z,47.18
2023-02-18T01:21:58.521Z,47.14
2023-02-18T01:24:28.980Z,47.12
2023-02-18T01:26:59.502Z,47.04
2023-02-18T01:29:29.974Z,46.31
2023-02-18T01:32:01.796Z,47.34
2023-02-18T01:55:47.541Z,52.12
2023-02-18T01:58:19.811Z,48.64
2023-02-18T02:00:50.389Z,47.31
2023-02-18T02:03:20.902Z,45.76
2023-02-18T02:17:42.536Z,50.72
2023-02-18T02:20:27.968Z,47.04
2023-02-18T02:23:03.893Z,45.86
2023-02-18T02:25:59.734Z,46.55
2023-02-18T02:28:35.840Z,45.72
2023-02-18T02:31:41.389Z,46.21
2023-02-18T02:34:37.590Z,46.21
2023-02-18T02:37:11.849Z,45.23
2023-02-18T02:39:47.647Z,43.85
2023-02-18T02:42:49.796Z,45.57
2023-02-18T02:45:44.390Z,45.57
2023-02-18T02:48:38.765Z,46.10
2023-02-18T02:51:17.846Z,44.60
2023-02-18T02:53:48.308Z,46.49
2023-02-18T02:56:24.257Z,46.71
2023-02-18T02:59:00.535Z,45.15
2023-02-18T03:01:52.168Z,45.88
2023-02-18T03:04:46.653Z,45.28
2023-02-18T03:07:55.041Z,46.03
2023-02-18T03:10:29.630Z,46.81
2023-02-18T03:13:19.215Z,47.90
2023-02-18T03:26:28.106Z,51.69
2023-02-18T03:29:01.481Z,49.82
2023-02-18T03:31:35.093Z,47.25
2023-02-18T03:34:14.628Z,47.89
2023-02-18T03:36:46.319Z,47.88
2023-02-18T03:39:20.049Z,46.34
2023-02-18T03:41:51.828Z,46.45
2023-02-18T03:44:22.587Z,47.04
2023-02-18T03:46:53.541Z,46.31
2023-02-18T03:49:25.183Z,46.39
2023-02-18T03:51:55.696Z,46.30
2023-02-18T03:54:26.146Z,45.99
2023-02-18T03:56:56.605Z,45.03
2023-02-18T03:59:27.146Z,45.51
2023-02-18T04:01:57.607Z,45.94
2023-02-18T04:04:29.637Z,46.23
2023-02-18T04:07:00.230Z,46.14
2023-02-18T04:09:30.665Z,45.15
2023-02-18T04:12:01.118Z,45.51
2023-02-18T04:14:31.589Z,46.00
2023-02-18T04:17:02.218Z,45.48
2023-02-18T04:19:32.669Z,45.93
2023-02-18T04:22:03.352Z,45.64
2023-02-18T04:24:33.805Z,46.88
2023-02-18T04:27:04.365Z,47.79
2023-02-18T04:29:35.037Z,46.64
2023-02-18T04:32:05.727Z,47.02
2023-02-18T04:34:37.547Z,47.34
2023-02-18T04:37:08.066Z,46.74
2023-02-18T04:39:38.584Z,47.28
2023-02-18T04:42:10.489Z,46.61
2023-02-18T04:44:41.259Z,45.88
2023-02-18T04:47:12.885Z,47.39
2023-02-18T04:49:44.802Z,48.03
2023-02-18T04:52:15.283Z,46.98
2023-02-18T04:54:46.048Z,47.02
2023-02-18T04:57:16.904Z,47.88
2023-02-18T04:59:48.469Z,47.89
2023-02-18T05:02:19.272Z,47.01
2023-02-18T05:04:50.042Z,47.35
2023-02-18T05:07:20.596Z,46.96
2023-02-18T05:09:51.048Z,46.99
2023-02-18T05:12:21.531Z,48.04
2023-02-18T05:14:52.060Z,48.47
2023-02-18T05:17:22.660Z,47.61
2023-02-18T05:19:53.118Z,48.32
2023-02-18T05:22:23.580Z,48.65
2023-02-18T05:24:54.077Z,47.00
2023-02-18T05:27:24.578Z,47.14
2023-02-18T05:29:55.095Z,46.32
2023-02-18T05:32:26.206Z,46.99
2023-02-18T05:34:56.699Z,48.38
2023-02-18T05:37:27.195Z,46.99
2023-02-18T05:39:57.806Z,46.97
2023-02-18T05:42:28.377Z,45.36
2023-02-18T05:44:59.280Z,46.60
2023-02-18T05:47:29.782Z,47.85
2023-02-18T05:50:00.244Z,47.03
2023-02-18T05:52:30.747Z,47.44
2023-02-18T05:55:01.215Z,48.33
2023-02-18T05:57:31.716Z,48.18
2023-02-18T06:00:02.208Z,48.04
2023-02-18T06:02:32.886Z,47.80
2023-02-18T06:05:05.775Z,46.67
2023-02-18T06:07:36.561Z,46.42
2023-02-18T06:10:08.595Z,47.11
2023-02-18T06:12:39.099Z,47.04
2023-02-18T06:15:10.013Z,47.28
2023-02-18T06:17:41.990Z,46.41
2023-02-18T06:20:16.306Z,45.00
2023-02-18T06:22:47.135Z,46.11
2023-02-18T06:25:21.512Z,47.48
2023-02-18T06:27:56.717Z,47.00
2023-02-18T06:30:30.318Z,45.77
2023-02-18T06:33:02.683Z,46.72
2023-02-18T06:35:34.740Z,47.58
2023-02-18T06:38:07.832Z,46.19
2023-02-18T06:40:40.818Z,46.96
2023-02-18T06:43:12.773Z,46.06
2023-02-18T06:45:44.949Z,47.78
2023-02-18T06:48:17.073Z,47.65
2023-02-18T06:50:52.479Z,46.57
2023-02-18T06:53:25.866Z,47.35
2023-02-18T06:55:59.396Z,46.40
2023-02-18T06:58:34.289Z,46.03
2023-02-18T07:01:08.882Z,47.23
2023-02-18T07:03:40.472Z,45.68
2023-02-18T07:06:13.158Z,46.80
2023-02-18T07:08:48.860Z,46.32
2023-02-18T07:11:25.824Z,47.41
2023-02-18T07:13:58.984Z,47.06
2023-02-18T07:16:42.219Z,45.99
2023-02-18T07:33:33.922Z,52.22
2023-02-18T07:36:05.440Z,48.57
2023-02-18T07:38:35.978Z,49.35
2023-02-18T07:41:06.671Z,49.35
2023-02-18T07:43:37.168Z,47.54
2023-02-18T07:46:09.004Z,47.10
2023-02-18T07:48:39.757Z,47.62
2023-02-18T08:03:39.819Z,52.71
2023-02-18T08:06:11.849Z,49.31
2023-02-18T08:08:42.362Z,47.41
2023-02-18T08:11:19.021Z,47.09
2023-02-18T08:13:46.967Z,46.77
2023-02-18T08:16:19.600Z,47.93
2023-02-18T08:18:51.657Z,44.61
2023-02-18T08:21:24.496Z,44.61
2023-02-18T09:02:54.507Z,60.29
2023-02-18T09:05:24.996Z,55.77
2023-02-18T09:07:55.651Z,55.30
2023-02-18T09:10:26.880Z,51.30
2023-02-18T09:12:58.721Z,51.30
2023-02-18T09:15:29.295Z,50.23
2023-02-18T09:18:00.140Z,50.26
2023-02-18T09:20:31.667Z,50.26
2023-02-18T09:23:03.914Z,51.15
2023-02-18T09:25:35.578Z,53.07
2023-02-18T09:28:06.026Z,50.72
2023-02-18T09:30:36.552Z,50.54
2023-02-18T09:33:07.521Z,50.54
2023-02-18T09:35:43.366Z,48.97
2023-02-18T09:38:16.405Z,50.19
2023-02-18T09:40:50.325Z,49.73
2023-02-18T09:43:35.842Z,49.73
2023-02-18T09:46:08.619Z,49.26
2023-02-18T09:48:39.711Z,49.61
2023-02-18T09:51:13.235Z,50.44
2023-02-18T09:53:47.975Z,48.93
2023-02-18T09:56:30.334Z,48.93
2023-02-18T09:59:02.916Z,51.21
2023-02-18T10:01:39.182Z,51.21
2023-02-18T10:04:19.320Z,49.60
2023-02-18T10:06:52.754Z,49.01
2023-02-18T10:09:28.832Z,49.01
2023-02-18T10:12:08.101Z,46.37
2023-02-18T10:14:38.611Z,46.37
2023-02-18T10:17:11.825Z,48.77
2023-02-18T10:19:44.504Z,48.61
2023-02-18T10:22:17.378Z,47.49
2023-02-18T10:24:59.649Z,47.13
2023-02-18T10:27:36.415Z,47.02
2023-02-18T10:30:34.208Z,47.63
2023-02-18T10:33:19.522Z,47.08
2023-02-18T10:35:55.660Z,45.14
2023-02-18T10:38:29.130Z,45.85
2023-02-18T10:41:05.280Z,45.28
2023-02-18T10:43:45.589Z,45.80
2023-02-18T10:46:42.959Z,45.72
2023-02-18T10:49:35.856Z,46.55
2023-02-18T10:52:10.302Z,46.42
2023-02-18T10:54:52.413Z,48.14
2023-02-18T10:57:25.065Z,45.93
2023-02-18T11:00:05.544Z,45.71
2023-02-18T11:02:35.999Z,45.71
2023-02-18T11:05:27.643Z,44.31
2023-02-18T11:08:02.836Z,45.94
2023-02-18T11:10:36.194Z,46.15
2023-02-18T11:13:09.099Z,46.09
2023-02-18T11:15:39.892Z,47.73
2023-02-18T11:18:28.762Z,45.06
2023-02-18T11:21:02.284Z,45.82
2023-02-18T11:23:33.308Z,45.24
2023-02-18T11:26:10.374Z,45.24
2023-02-18T11:28:52.348Z,44.96
2023-02-18T11:31:28.816Z,44.66
2023-02-18T11:34:03.326Z,45.79
2023-02-18T11:36:38.831Z,45.79
2023-02-18T11:39:18.013Z,44.08
2023-02-18T11:41:51.263Z,44.22
2023-02-18T11:44:30.204Z,43.60
2023-02-18T11:47:04.524Z,42.55
2023-02-18T11:49:36.979Z,43.37
2023-02-18T11:52:19.150Z,43.35
2023-02-18T11:55:08.944Z,42.94
2023-02-18T11:57:43.160Z,42.94
2023-02-18T12:00:24.878Z,45.29
2023-02-18T12:02:58.295Z,44.25
2023-02-18T12:05:30.754Z,44.25
2023-02-18T12:08:10.198Z,43.39
2023-02-18T12:10:43.536Z,43.39
2023-02-18T12:13:41.480Z,43.92
2023-02-18T12:16:27.532Z,44.15
2023-02-18T12:19:10.472Z,44.69
2023-02-18T12:21:55.913Z,43.44
2023-02-18T12:24:29.269Z,44.77
2023-02-18T12:27:23.949Z,43.49
2023-02-18T12:30:12.416Z,42.76
2023-02-18T12:33:14.589Z,42.40
2023-02-18T12:35:54.242Z,42.63
2023-02-18T12:38:33.831Z,42.63
2023-02-18T12:41:26.180Z,42.75
2023-02-18T12:44:16.560Z,42.80
2023-02-18T12:46:53.619Z,43.15
2023-02-18T12:49:36.214Z,43.15
2023-02-18T12:52:12.690Z,42.31
2023-02-18T12:54:55.655Z,42.35
2023-02-18T12:57:34.533Z,41.97
2023-02-18T13:00:32.100Z,40.74
2023-02-18T13:03:32.633Z,40.86
2023-02-18T13:06:24.644Z,40.88
2023-02-18T13:09:04.620Z,40.88
2023-02-18T13:11:46.850Z,41.32
2023-02-18T13:14:29.500Z,41.24
2023-02-18T13:17:02.934Z,41.93
2023-02-18T13:19:48.125Z,42.10
2023-02-18T13:22:22.173Z,41.13
2023-02-18T13:24:54.926Z,40.92
2023-02-18T13:27:40.226Z,39.61
2023-02-18T13:30:29.191Z,40.81
2023-02-18T13:33:26.997Z,38.51
2023-02-18T13:36:19.627Z,38.52
2023-02-18T13:38:56.066Z,43.37
2023-02-18T13:41:28.622Z,43.37
2023-02-18T13:43:59.091Z,45.60
2023-02-18T13:46:29.727Z,46.28
2023-02-18T13:49:08.443Z,46.00
2023-02-18T13:51:49.637Z,48.30
2023-02-18T13:54:39.513Z,47.50
2023-02-18T13:57:24.925Z,48.14
2023-02-18T14:00:07.145Z,49.18
2023-02-18T14:02:38.440Z,48.34
2023-02-18T14:05:12.036Z,48.34
2023-02-18T14:08:03.892Z,49.16
2023-02-18T14:10:37.403Z,50.17
2023-02-18T14:13:26.117Z,49.72
2023-02-18T14:16:00.371Z,52.39
2023-02-18T14:18:42.807Z,50.67
2023-02-18T14:21:16.427Z,51.82
2023-02-18T14:23:58.035Z,52.59
2023-02-18T14:26:34.796Z,53.84
2023-02-18T14:29:08.233Z,53.52
2023-02-18T14:31:44.719Z,52.50
2023-02-18T14:34:22.008Z,51.83
2023-02-18T14:37:15.789Z,53.58
2023-02-18T14:39:53.517Z,54.46
2023-02-18T14:42:51.229Z,55.31
2023-02-18T14:45:27.873Z,55.50
2023-02-18T14:48:06.882Z,56.99
2023-02-18T14:50:39.984Z,57.35
2023-02-18T14:53:22.454Z,63.55
2023-02-18T14:55:58.556Z,60.29
2023-02-18T14:58:37.896Z,68.66
2023-02-18T15:01:11.254Z,66.81
2023-02-18T15:03:42.579Z,65.94
2023-02-18T15:06:28.378Z,62.46
2023-02-18T15:09:03.487Z,64.57
2023-02-18T15:11:46.391Z,74.65
2023-02-18T15:14:19.954Z,63.65
2023-02-18T15:16:53.000Z,57.79
2023-02-18T15:19:27.559Z,57.33
2023-02-18T15:21:58.854Z,57.89
2023-02-18T15:24:32.332Z,62.17
2023-02-18T15:27:33.113Z,63.67
2023-02-18T15:30:19.150Z,61.28
2023-02-18T15:33:00.932Z,58.41
2023-02-18T15:35:34.516Z,57.81
2023-02-18T15:38:04.984Z,58.15
2023-02-18T15:40:38.946Z,57.37
2023-02-18T15:43:13.304Z,57.90
2023-02-18T15:45:45.500Z,60.02
2023-02-18T15:48:24.898Z,58.79
2023-02-18T15:51:02.722Z,56.92
2023-02-18T15:53:31.254Z,59.70
2023-02-18T15:56:03.134Z,58.52
2023-02-18T15:58:34.321Z,58.01
2023-02-18T16:01:07.810Z,59.84
2023-02-18T16:03:42.539Z,59.13
2023-02-18T16:06:22.325Z,58.86
2023-02-18T16:09:10.654Z,57.49
2023-02-18T16:11:45.053Z,58.12
2023-02-18T16:14:36.940Z,58.49
2023-02-18T16:17:16.984Z,55.95
2023-02-18T16:20:03.850Z,56.01
2023-02-18T16:22:34.741Z,55.40
2023-02-18T16:25:26.448Z,58.49
2023-02-18T16:28:05.794Z,55.89
2023-02-18T16:30:37.634Z,55.45
2023-02-18T16:33:08.681Z,54.14
2023-02-18T16:35:49.618Z,55.11
2023-02-18T16:38:20.699Z,55.27
2023-02-18T16:40:51.728Z,53.03
2023-02-18T16:43:25.173Z,53.99
2023-02-18T16:45:58.324Z,52.24
2023-02-18T16:48:37.641Z,52.67
2023-02-18T16:51:14.105Z,52.98
2023-02-18T16:53:44.877Z,54.31
2023-02-18T16:56:18.501Z,56.21
2023-02-18T16:58:50.850Z,55.64
2023-02-18T17:01:30.287Z,53.72
2023-02-18T17:04:03.064Z,54.09
2023-02-18T17:06:34.458Z,55.34
2023-02-18T17:09:06.755Z,53.04
2023-02-18T17:11:37.604Z,53.85
2023-02-18T17:14:08.105Z,55.84
2023-02-18T17:16:39.782Z,57.26
2023-02-18T17:19:10.334Z,56.10
2023-02-18T17:21:41.113Z,56.19
2023-02-18T17:24:15.874Z,56.30
2023-02-18T17:26:46.564Z,55.79
2023-02-18T17:29:17.331Z,56.84
2023-02-18T17:31:50.017Z,55.70
2023-02-18T17:34:32.786Z,55.79
2023-02-18T17:37:03.264Z,56.40
2023-02-18T17:39:33.689Z,55.45
2023-02-18T17:42:05.445Z,56.24
2023-02-18T17:44:37.400Z,57.60
2023-02-18T17:47:09.099Z,57.53
2023-02-18T17:49:39.697Z,57.02
2023-02-18T17:52:13.073Z,57.74
2023-02-18T17:54:43.595Z,58.93
2023-02-18T17:57:14.079Z,57.94
2023-02-18T17:59:44.515Z,56.44
2023-02-18T18:02:23.764Z,59.94
2023-02-18T18:04:54.617Z,58.76
2023-02-18T18:07:25.113Z,61.95
2023-02-18T18:09:55.612Z,59.78
2023-02-18T18:12:26.599Z,60.06
2023-02-18T18:14:57.592Z,58.03
2023-02-18T18:17:28.177Z,60.39
2023-02-18T18:19:58.647Z,57.52
2023-02-18T18:22:29.148Z,57.61
2023-02-18T18:25:20.790Z,61.47
2023-02-18T18:27:56.235Z,58.36
2023-02-18T18:30:29.600Z,58.57
2023-02-18T18:33:00.593Z,58.29
2023-02-18T18:35:37.801Z,61.58
2023-02-18T18:38:08.458Z,63.60
2023-02-18T18:40:39.007Z,60.39
2023-02-18T18:43:11.377Z,61.28
2023-02-18T18:45:41.951Z,60.38
2023-02-18T18:48:12.870Z,58.55
2023-02-18T18:50:44.262Z,56.80
2023-02-18T18:53:27.543Z,57.87
2023-02-18T18:56:00.602Z,60.92
2023-02-18T18:58:31.746Z,60.50
2023-02-18T19:01:05.068Z,60.18
2023-02-18T19:03:37.178Z,59.01
2023-02-18T19:06:07.622Z,61.49
2023-02-18T19:08:38.076Z,59.45
2023-02-18T19:11:08.940Z,59.85
2023-02-18T19:13:39.641Z,59.00
2023-02-18T19:16:23.104Z,61.79
2023-02-18T19:18:54.510Z,60.63
2023-02-18T19:21:26.545Z,62.27
2023-02-18T19:24:02.515Z,61.94
2023-02-18T19:26:55.204Z,58.35
2023-02-18T19:29:41.112Z,57.01
2023-02-18T19:32:13.245Z,55.23
2023-02-18T19:34:44.018Z,58.60
2023-02-18T19:37:14.618Z,59.03
2023-02-18T19:39:45.323Z,59.41
2023-02-18T19:42:15.822Z,59.27
2023-02-18T19:44:47.560Z,58.03
2023-02-18T19:47:21.536Z,61.58
2023-02-18T19:50:03.560Z,62.25
2023-02-18T19:52:34.452Z,66.85
2023-02-18T19:55:05.282Z,62.60
2023-02-18T19:57:36.833Z,59.12
2023-02-18T20:00:09.736Z,61.27
2023-02-18T20:02:40.827Z,59.60
2023-02-18T20:05:18.695Z,58.54
2023-02-18T20:07:54.055Z,60.82
2023-02-18T20:10:31.813Z,60.45
2023-02-18T20:13:04.094Z,57.78
2023-02-18T20:15:35.896Z,56.80
2023-02-18T20:18:06.435Z,57.60
2023-02-18T20:20:37.060Z,58.25
2023-02-18T20:23:08.825Z,59.24
2023-02-18T20:25:40.575Z,57.55
2023-02-18T20:28:19.427Z,57.95
2023-02-18T20:30:47.348Z,58.12
2023-02-18T20:33:19.741Z,56.80
2023-02-18T20:36:06.602Z,56.92
2023-02-18T20:38:41.690Z,60.96
2023-02-18T20:41:14.794Z,58.31
2023-02-18T20:43:45.539Z,57.42
2023-02-18T20:46:21.251Z,58.09
2023-02-18T20:48:53.316Z,55.89
